createdAt,value
2023-02-01T00:00:03.978Z,4.65
2023-02-01T00:00:14.047Z,4.67
2023-02-01T00:00:24.248Z,4.67
2023-02-01T00:00:34.104Z,4.67
2023-02-01T00:00:44.243Z,4.67
2023-02-01T00:00:54.266Z,4.67
2023-02-01T00:01:04.308Z,4.67
2023-02-01T00:01:14.379Z,4.68
2023-02-01T00:01:24.447Z,4.68
2023-02-01T00:01:34.500Z,4.67
2023-02-01T00:01:44.563Z,4.68
2023-02-01T00:01:54.629Z,4.68
2023-02-01T00:02:04.638Z,4.69
2023-02-01T00:02:14.702Z,4.69
2023-02-01T00:02:24.831Z,4.68
2023-02-01T00:02:34.928Z,4.69
2023-02-01T00:02:45.041Z,4.68
2023-02-01T00:02:55.129Z,4.69
2023-02-01T00:03:05.237Z,4.69
2023-02-01T00:03:15.319Z,4.69
2023-02-01T00:03:25.389Z,4.69
2023-02-01T00:03:35.487Z,4.71
2023-02-01T00:03:45.595Z,4.71
2023-02-01T00:03:55.732Z,4.69
2023-02-01T00:04:05.701Z,4.69
2023-02-01T00:04:15.762Z,4.69
2023-02-01T00:04:25.817Z,4.71
2023-02-01T00:04:35.879Z,4.69
2023-02-01T00:04:45.934Z,4.72
2023-02-01T00:04:56.032Z,4.71
2023-02-01T00:05:06.075Z,4.72
2023-02-01T00:05:16.120Z,4.71
2023-02-01T00:05:26.151Z,4.71
2023-02-01T00:05:36.207Z,4.72
2023-02-01T00:05:46.261Z,4.74
2023-02-01T00:05:56.308Z,4.71
2023-02-01T00:06:06.345Z,4.72
2023-02-01T00:06:16.386Z,4.72
2023-02-01T00:06:26.417Z,4.72
2023-02-01T00:06:36.452Z,4.72
2023-02-01T00:06:46.482Z,4.72
2023-02-01T00:06:56.516Z,4.72
2023-02-01T00:07:06.545Z,4.74
2023-02-01T00:07:16.583Z,4.74
2023-02-01T00:07:26.615Z,4.74
2023-02-01T00:07:36.656Z,4.74
2023-02-01T00:07:46.689Z,4.75
2023-02-01T00:07:56.778Z,4.74
2023-02-01T00:08:06.815Z,4.75
2023-02-01T00:08:16.863Z,4.75
2023-02-01T00:08:26.923Z,4.75
2023-02-01T00:08:37.036Z,4.79
2023-02-01T00:08:47.075Z,4.75
2023-02-01T00:08:57.145Z,4.75
2023-02-01T00:09:07.200Z,4.77
2023-02-01T00:09:17.239Z,4.75
2023-02-01T00:09:27.286Z,4.77
2023-02-01T00:09:37.375Z,4.77
2023-02-01T00:09:47.435Z,4.77
2023-02-01T00:09:57.530Z,4.75
2023-02-01T00:10:07.574Z,4.77
2023-02-01T00:10:17.622Z,4.77
2023-02-01T00:10:27.675Z,4.79
2023-02-01T00:10:37.716Z,4.77
2023-02-01T00:10:47.875Z,4.77
2023-02-01T00:10:57.917Z,4.77
2023-02-01T00:11:07.979Z,4.79
2023-02-01T00:11:18.023Z,4.79
2023-02-01T00:11:28.069Z,4.79
2023-02-01T00:11:38.107Z,4.77
2023-02-01T00:11:48.155Z,4.79
2023-02-01T00:11:58.196Z,4.79
2023-02-01T00:12:08.305Z,4.79
2023-02-01T00:12:18.404Z,4.77
2023-02-01T00:12:28.445Z,4.79
2023-02-01T00:12:38.508Z,4.79
2023-02-01T00:12:48.547Z,4.77
2023-02-01T00:12:58.628Z,4.77
2023-02-01T00:13:08.685Z,4.77
2023-02-01T00:13:18.745Z,4.79
2023-02-01T00:13:28.785Z,4.79
2023-02-01T00:13:38.926Z,4.79
2023-02-01T00:13:49.026Z,4.77
2023-02-01T00:13:59.137Z,4.79
2023-02-01T00:14:09.205Z,4.77
2023-02-01T00:14:19.238Z,4.77
2023-02-01T00:14:29.295Z,4.79
2023-02-01T00:14:39.393Z,4.79
2023-02-01T00:14:49.445Z,4.79
2023-02-01T00:14:59.518Z,4.79
2023-02-01T00:15:09.606Z,4.77
2023-02-01T00:15:19.659Z,4.79
2023-02-01T00:15:29.696Z,4.79
2023-02-01T00:15:39.844Z,4.79
2023-02-01T00:15:50.031Z,4.79
2023-02-01T00:15:59.968Z,4.80
2023-02-01T00:16:10.057Z,4.83
2023-02-01T00:16:20.124Z,4.80
2023-02-01T00:16:30.181Z,4.80
2023-02-01T00:16:40.234Z,4.80
2023-02-01T00:16:50.335Z,4.83
2023-02-01T00:17:00.379Z,4.83
2023-02-01T00:17:10.426Z,4.83
2023-02-01T00:17:20.477Z,4.83
2023-02-01T00:17:30.532Z,4.84
2023-02-01T00:17:40.568Z,4.84
2023-02-01T00:17:50.624Z,4.84
2023-02-01T00:18:00.677Z,4.86
2023-02-01T00:18:10.744Z,4.84
2023-02-01T00:18:20.843Z,4.84
2023-02-01T00:18:30.896Z,4.86
2023-02-01T00:18:40.953Z,4.86
2023-02-01T00:18:50.992Z,4.84
2023-02-01T00:19:01.072Z,4.87
2023-02-01T00:19:11.112Z,4.86
2023-02-01T00:19:21.154Z,4.87
2023-02-01T00:19:31.222Z,4.84
2023-02-01T00:19:41.276Z,4.86
2023-02-01T00:19:51.318Z,4.84
2023-02-01T00:20:01.373Z,4.86
2023-02-01T00:20:11.420Z,4.86
2023-02-01T00:20:21.792Z,4.87
2023-02-01T00:20:31.483Z,4.86
2023-02-01T00:20:41.612Z,4.87
2023-02-01T00:20:51.726Z,4.86
2023-02-01T00:21:01.784Z,4.87
2023-02-01T00:21:11.857Z,4.86
2023-02-01T00:21:21.905Z,4.86
2023-02-01T00:21:31.933Z,4.86
2023-02-01T00:21:41.985Z,4.86
2023-02-01T00:21:52.034Z,4.86
2023-02-01T00:22:02.091Z,4.86
2023-02-01T00:22:12.183Z,4.86
2023-02-01T00:22:22.235Z,4.87
2023-02-01T00:22:32.373Z,4.84
2023-02-01T00:22:42.496Z,4.86
2023-02-01T00:22:52.543Z,4.86
2023-02-01T00:23:02.593Z,4.86
2023-02-01T00:23:12.672Z,4.86
2023-02-01T00:23:22.724Z,4.86
2023-02-01T00:23:32.813Z,4.86
2023-02-01T00:23:42.974Z,4.84
2023-02-01T00:23:53.044Z,4.84
2023-02-01T00:24:03.118Z,4.86
2023-02-01T00:24:13.194Z,4.86
2023-02-01T00:24:23.251Z,4.86
2023-02-01T00:24:33.300Z,4.86
2023-02-01T00:24:43.354Z,4.86
2023-02-01T00:24:53.391Z,4.86
2023-02-01T00:25:03.449Z,4.87
2023-02-01T00:25:13.512Z,4.87
2023-02-01T00:25:23.566Z,4.87
2023-02-01T00:25:33.613Z,4.87
2023-02-01T00:25:43.669Z,4.87
2023-02-01T00:25:53.723Z,4.86
2023-02-01T00:26:03.786Z,4.86
2023-02-01T00:26:13.897Z,4.86
2023-02-01T00:26:23.878Z,4.86
2023-02-01T00:26:33.953Z,4.86
2023-02-01T00:26:44.107Z,4.86
2023-02-01T00:26:54.231Z,4.84
2023-02-01T00:27:04.193Z,4.86
2023-02-01T00:27:14.200Z,4.86
2023-02-01T00:27:24.276Z,4.84
2023-02-01T00:27:34.325Z,4.86
2023-02-01T00:27:44.379Z,4.86
2023-02-01T00:27:54.512Z,4.84
2023-02-01T00:28:04.593Z,4.84
2023-02-01T00:28:14.696Z,4.84
2023-02-01T00:28:24.741Z,4.86
2023-02-01T00:28:34.769Z,4.84
2023-02-01T00:28:44.802Z,4.84
2023-02-01T00:28:54.852Z,4.86
2023-02-01T00:29:04.980Z,4.86
2023-02-01T00:29:15.011Z,4.86
2023-02-01T00:29:25.071Z,4.84
2023-02-01T00:29:35.131Z,4.84
2023-02-01T00:29:45.161Z,4.84
2023-02-01T00:29:55.212Z,4.86
2023-02-01T00:30:05.244Z,4.86
2023-02-01T00:30:15.348Z,4.86
2023-02-01T00:30:25.382Z,4.86
2023-02-01T00:30:35.454Z,4.87
2023-02-01T00:30:45.498Z,4.87
2023-02-01T00:30:55.651Z,4.88
2023-02-01T00:31:05.851Z,4.88
2023-02-01T00:31:15.989Z,4.87
2023-02-01T00:31:28.970Z,4.87
2023-02-01T00:31:36.144Z,4.88
2023-02-01T00:31:46.118Z,4.87
2023-02-01T00:31:56.228Z,4.87
2023-02-01T00:32:06.322Z,4.87
2023-02-01T00:32:16.411Z,4.88
2023-02-01T00:32:26.463Z,4.87
2023-02-01T00:32:36.524Z,4.87
2023-02-01T00:32:46.581Z,4.87
2023-02-01T00:32:56.692Z,4.87
2023-02-01T00:33:06.742Z,4.87
2023-02-01T00:33:16.782Z,4.87
2023-02-01T00:33:26.868Z,4.87
2023-02-01T00:33:36.895Z,4.87
2023-02-01T00:33:46.960Z,4.87
2023-02-01T00:33:57.032Z,4.87
2023-02-01T00:34:07.091Z,4.87
2023-02-01T00:34:17.132Z,4.87
2023-02-01T00:34:27.240Z,4.86
2023-02-01T00:34:37.312Z,4.86
2023-02-01T00:34:47.361Z,4.86
2023-02-01T00:34:57.457Z,4.87
2023-02-01T00:35:07.498Z,4.87
2023-02-01T00:35:17.624Z,4.87
2023-02-01T00:35:27.711Z,4.86
2023-02-01T00:35:37.791Z,4.87
2023-02-01T00:35:47.861Z,4.86
2023-02-01T00:35:57.932Z,4.87
2023-02-01T00:36:07.981Z,4.87
2023-02-01T00:36:18.150Z,4.87
2023-02-01T00:36:28.143Z,4.86
2023-02-01T00:36:38.223Z,4.87
2023-02-01T00:36:48.310Z,4.86
2023-02-01T00:36:58.372Z,4.87
2023-02-01T00:37:08.413Z,4.87
2023-02-01T00:37:18.521Z,4.86
2023-02-01T00:37:28.591Z,4.86
2023-02-01T00:37:38.651Z,4.84
2023-02-01T00:37:48.741Z,4.84
2023-02-01T00:37:58.788Z,4.84
2023-02-01T00:38:08.861Z,4.84
2023-02-01T00:38:18.943Z,4.84
2023-02-01T00:38:29.060Z,4.83
2023-02-01T00:38:39.120Z,4.84
2023-02-01T00:38:49.191Z,4.84
2023-02-01T00:38:59.265Z,4.83
2023-02-01T00:39:09.801Z,4.83
2023-02-01T00:39:19.843Z,4.80
2023-02-01T00:39:29.901Z,4.83
2023-02-01T00:39:39.951Z,4.83
2023-02-01T00:39:50.010Z,4.83
2023-02-01T00:40:00.120Z,4.80
2023-02-01T00:40:10.170Z,4.83
2023-02-01T00:40:20.667Z,4.80
2023-02-01T00:40:30.238Z,4.79
2023-02-01T00:40:40.301Z,4.79
2023-02-01T00:40:50.423Z,4.80
2023-02-01T00:41:00.509Z,4.80
2023-02-01T00:41:10.568Z,4.80
2023-02-01T00:41:20.629Z,4.79
2023-02-01T00:41:30.693Z,4.80
2023-02-01T00:41:40.760Z,4.80
2023-02-01T00:41:50.811Z,4.80
2023-02-01T00:42:00.874Z,4.80
2023-02-01T00:42:10.925Z,4.80
2023-02-01T00:42:20.998Z,4.79
2023-02-01T00:42:31.046Z,4.79
2023-02-01T00:42:41.082Z,4.79
2023-02-01T00:42:51.221Z,4.77
2023-02-01T00:43:01.294Z,4.79
2023-02-01T00:43:11.374Z,4.77
2023-02-01T00:43:21.419Z,4.77
2023-02-01T00:43:31.452Z,4.77
2023-02-01T00:43:41.517Z,4.77
2023-02-01T00:43:51.568Z,4.80
2023-02-01T00:44:01.628Z,4.77
2023-02-01T00:44:11.745Z,4.77
2023-02-01T00:44:21.884Z,4.77
2023-02-01T00:44:31.941Z,4.75
2023-02-01T00:44:42.003Z,4.77
2023-02-01T00:44:52.065Z,4.77
2023-02-01T00:45:02.130Z,4.77
2023-02-01T00:45:12.200Z,4.75
2023-02-01T00:45:22.249Z,4.77
2023-02-01T00:45:32.333Z,4.77
2023-02-01T00:45:42.380Z,4.77
2023-02-01T00:45:52.430Z,4.77
2023-02-01T00:46:02.508Z,4.77
2023-02-01T00:46:12.540Z,4.75
2023-02-01T00:46:22.686Z,4.77
2023-02-01T00:46:32.601Z,4.75
2023-02-01T00:46:42.791Z,4.75
2023-02-01T00:46:52.926Z,4.75
2023-02-01T00:47:03.014Z,4.75
2023-02-01T00:47:13.056Z,4.74
2023-02-01T00:47:23.109Z,4.74
2023-02-01T00:47:33.185Z,4.74
2023-02-01T00:47:43.260Z,4.74
2023-02-01T00:47:53.440Z,4.72
2023-02-01T00:48:03.481Z,4.72
2023-02-01T00:48:13.531Z,4.72
2023-02-01T00:48:23.652Z,4.72
2023-02-01T00:48:33.721Z,4.72
2023-02-01T00:48:43.778Z,4.72
2023-02-01T00:48:53.839Z,4.72
2023-02-01T00:49:03.936Z,4.72
2023-02-01T00:49:13.991Z,4.71
2023-02-01T00:49:24.072Z,4.72
2023-02-01T00:49:34.177Z,4.72
2023-02-01T00:49:44.201Z,4.71
2023-02-01T00:49:54.257Z,4.71
2023-02-01T00:50:04.309Z,4.71
2023-02-01T00:50:14.448Z,4.69
2023-02-01T00:50:24.527Z,4.69
2023-02-01T00:50:34.569Z,4.69
2023-02-01T00:50:44.627Z,4.71
2023-02-01T00:50:54.728Z,4.71
2023-02-01T00:51:04.816Z,4.71
2023-02-01T00:51:14.886Z,4.69
2023-02-01T00:51:24.921Z,4.69
2023-02-01T00:51:34.979Z,4.69
2023-02-01T00:51:45.037Z,4.69
2023-02-01T00:51:55.077Z,4.69
2023-02-01T00:52:05.130Z,4.69
2023-02-01T00:52:15.188Z,4.69
2023-02-01T00:52:25.299Z,4.69
2023-02-01T00:52:35.444Z,4.69
2023-02-01T00:52:45.509Z,4.69
2023-02-01T00:52:55.559Z,4.69
2023-02-01T00:53:05.605Z,4.68
2023-02-01T00:53:15.671Z,4.69
2023-02-01T00:53:25.740Z,4.69
2023-02-01T00:53:35.799Z,4.69
2023-02-01T00:53:45.906Z,4.68
2023-02-01T00:53:55.976Z,4.69
2023-02-01T00:54:06.039Z,4.68
2023-02-01T00:54:16.068Z,4.69
2023-02-01T00:54:26.121Z,4.68
2023-02-01T00:54:36.230Z,4.68
2023-02-01T00:54:46.269Z,4.67
2023-02-01T00:54:56.307Z,4.68
2023-02-01T00:55:06.360Z,4.68
2023-02-01T00:55:16.437Z,4.69
2023-02-01T00:55:26.468Z,4.68
2023-02-01T00:55:36.525Z,4.68
2023-02-01T00:55:46.558Z,4.68
2023-02-01T00:55:56.668Z,4.68
2023-02-01T00:56:06.787Z,4.67
2023-02-01T00:56:16.835Z,4.68
2023-02-01T00:56:26.887Z,4.67
2023-02-01T00:56:36.927Z,4.68
2023-02-01T00:56:46.968Z,4.67
2023-02-01T00:56:57.026Z,4.67
2023-02-01T00:57:07.077Z,4.67
2023-02-01T00:57:17.180Z,4.67
2023-02-01T00:57:27.242Z,4.65
2023-02-01T00:57:37.284Z,4.67
2023-02-01T00:57:47.337Z,4.67
2023-02-01T00:57:57.437Z,4.67
2023-02-01T00:58:07.486Z,4.65
2023-02-01T00:58:17.537Z,4.65
2023-02-01T00:58:27.604Z,4.65
2023-02-01T00:58:37.682Z,4.65
2023-02-01T00:58:47.722Z,4.62
2023-02-01T00:58:57.771Z,4.61
2023-02-01T00:59:07.829Z,4.61
2023-02-01T00:59:17.869Z,4.62
2023-02-01T00:59:27.907Z,4.61
2023-02-01T00:59:38.036Z,4.62
2023-02-01T00:59:48.178Z,4.59
2023-02-01T00:59:58.332Z,4.61
2023-02-01T01:00:08.366Z,4.61
2023-02-01T01:00:18.426Z,4.61
2023-02-01T01:00:28.650Z,4.61
2023-02-01T01:00:38.562Z,4.62
2023-02-01T01:00:48.729Z,4.59
2023-02-01T01:00:58.750Z,4.59
2023-02-01T01:01:08.702Z,4.61
2023-02-01T01:01:18.758Z,4.59
2023-02-01T01:01:28.791Z,4.59
2023-02-01T01:01:38.903Z,4.57
2023-02-01T01:01:49.008Z,4.57
2023-02-01T01:01:59.112Z,4.57
2023-02-01T01:02:09.156Z,4.57
2023-02-01T01:02:19.254Z,4.59
2023-02-01T01:02:29.315Z,4.59
2023-02-01T01:02:39.346Z,4.57
2023-02-01T01:02:49.397Z,4.59
2023-02-01T01:02:59.499Z,4.57
2023-02-01T01:03:09.576Z,4.57
2023-02-01T01:03:19.633Z,4.59
2023-02-01T01:03:29.679Z,4.57
2023-02-01T01:03:39.718Z,4.57
2023-02-01T01:03:49.774Z,4.57
2023-02-01T01:03:59.840Z,4.56
2023-02-01T01:04:09.870Z,4.57
2023-02-01T01:04:20.005Z,4.57
2023-02-01T01:04:30.063Z,4.57
2023-02-01T01:04:40.110Z,4.57
2023-02-01T01:04:50.179Z,4.57
2023-02-01T01:05:00.215Z,4.57
2023-02-01T01:05:10.267Z,4.56
2023-02-01T01:05:20.309Z,4.56
2023-02-01T01:05:30.398Z,4.56
2023-02-01T01:05:40.455Z,4.54
2023-02-01T01:05:50.495Z,4.56
2023-02-01T01:06:00.656Z,4.56
2023-02-01T01:06:10.696Z,4.56
2023-02-01T01:06:20.814Z,4.56
2023-02-01T01:06:30.857Z,4.56
2023-02-01T01:06:40.882Z,4.54
2023-02-01T01:06:50.967Z,4.54
2023-02-01T01:07:01.007Z,4.54
2023-02-01T01:07:11.061Z,4.54
2023-02-01T01:07:21.116Z,4.53
2023-02-01T01:07:31.161Z,4.53
2023-02-01T01:07:41.195Z,4.53
2023-02-01T01:07:51.266Z,4.53
2023-02-01T01:08:01.326Z,4.53
2023-02-01T01:08:11.398Z,4.53
2023-02-01T01:08:21.447Z,4.51
2023-02-01T01:08:31.505Z,4.53
2023-02-01T01:08:41.545Z,4.51
2023-02-01T01:08:51.645Z,4.53
2023-02-01T01:09:01.670Z,4.53
2023-02-01T01:09:11.750Z,4.51
2023-02-01T01:09:21.818Z,4.51
2023-02-01T01:09:31.868Z,4.51
2023-02-01T01:09:41.936Z,4.53
2023-02-01T01:09:52.016Z,4.51
2023-02-01T01:10:02.064Z,4.51
2023-02-01T01:10:12.142Z,4.53
2023-02-01T01:10:22.459Z,4.51
2023-02-01T01:10:32.356Z,4.51
2023-02-01T01:10:42.396Z,4.51
2023-02-01T01:10:52.447Z,4.51
2023-02-01T01:11:02.526Z,4.50
2023-02-01T01:11:12.603Z,4.50
2023-02-01T01:11:22.671Z,4.51
2023-02-01T01:11:32.708Z,4.50
2023-02-01T01:11:42.756Z,4.51
2023-02-01T01:11:52.815Z,4.49
2023-02-01T01:12:02.864Z,4.50
2023-02-01T01:12:12.895Z,4.50
2023-02-01T01:12:22.960Z,4.50
2023-02-01T01:12:33.075Z,4.50
2023-02-01T01:12:43.154Z,4.51
2023-02-01T01:12:53.254Z,4.50
2023-02-01T01:13:03.306Z,4.51
2023-02-01T01:13:13.354Z,4.50
2023-02-01T01:13:23.467Z,4.50
2023-02-01T01:13:33.515Z,4.50
2023-02-01T01:13:43.566Z,4.50
2023-02-01T01:13:53.627Z,4.51
2023-02-01T01:14:03.685Z,4.51
2023-02-01T01:14:13.755Z,4.50
2023-02-01T01:14:23.867Z,4.50
2023-02-01T01:14:33.924Z,4.50
2023-02-01T01:14:43.990Z,4.50
2023-02-01T01:14:54.126Z,4.50
2023-02-01T01:15:04.175Z,4.50
2023-02-01T01:15:14.224Z,4.50
2023-02-01T01:15:24.286Z,4.50
2023-02-01T01:15:34.334Z,4.50
2023-02-01T01:15:44.410Z,4.50
2023-02-01T01:15:54.481Z,4.50
2023-02-01T01:16:04.669Z,4.49
2023-02-01T01:16:14.821Z,4.50
2023-02-01T01:16:24.862Z,4.49
2023-02-01T01:16:34.756Z,4.50
2023-02-01T01:16:44.796Z,4.50
2023-02-01T01:16:54.844Z,4.49
2023-02-01T01:17:04.887Z,4.50
2023-02-01T01:17:14.951Z,4.50
2023-02-01T01:17:25.004Z,4.50
2023-02-01T01:17:35.033Z,4.50
2023-02-01T01:17:45.084Z,4.47
2023-02-01T01:17:55.133Z,4.47
2023-02-01T01:18:05.254Z,4.49
2023-02-01T01:18:15.356Z,4.49
2023-02-01T01:18:25.493Z,4.49
2023-02-01T01:18:35.544Z,4.49
2023-02-01T01:18:45.613Z,4.47
2023-02-01T01:18:55.694Z,4.47
2023-02-01T01:19:05.743Z,4.47
2023-02-01T01:19:15.804Z,4.47
2023-02-01T01:19:25.854Z,4.47
2023-02-01T01:19:35.910Z,4.47
2023-02-01T01:19:45.953Z,4.46
2023-02-01T01:19:57.783Z,4.47
2023-02-01T01:20:06.107Z,4.46
2023-02-01T01:20:16.161Z,4.46
2023-02-01T01:20:26.243Z,4.46
2023-02-01T01:20:36.319Z,4.47
2023-02-01T01:20:46.403Z,4.47
2023-02-01T01:20:56.452Z,4.46
2023-02-01T01:21:06.530Z,4.46
2023-02-01T01:21:16.572Z,4.46
2023-02-01T01:21:26.659Z,4.46
2023-02-01T01:21:36.755Z,4.46
2023-02-01T01:21:46.839Z,4.46
2023-02-01T01:21:56.882Z,4.46
2023-02-01T01:22:06.913Z,4.47
2023-02-01T01:22:16.976Z,4.47
2023-02-01T01:22:27.027Z,4.47
2023-02-01T01:22:37.064Z,4.47
2023-02-01T01:22:47.112Z,4.47
2023-02-01T01:22:57.145Z,4.46
2023-02-01T01:23:07.238Z,4.46
2023-02-01T01:23:17.262Z,4.47
2023-02-01T01:23:27.317Z,4.47
2023-02-01T01:23:37.361Z,4.46
2023-02-01T01:23:47.394Z,4.47
2023-02-01T01:23:57.469Z,4.47
2023-02-01T01:24:07.520Z,4.47
2023-02-01T01:24:17.593Z,4.49
2023-02-01T01:24:27.633Z,4.47
2023-02-01T01:24:37.683Z,4.49
2023-02-01T01:24:47.733Z,4.49
2023-02-01T01:24:57.831Z,4.47
2023-02-01T01:25:07.873Z,4.46
2023-02-01T01:25:17.901Z,4.46
2023-02-01T01:25:27.962Z,4.46
2023-02-01T01:25:38.025Z,4.47
2023-02-01T01:25:48.071Z,4.46
2023-02-01T01:25:58.105Z,4.47
2023-02-01T01:26:08.243Z,4.44
2023-02-01T01:26:18.288Z,4.44
2023-02-01T01:26:28.488Z,4.44
2023-02-01T01:26:38.562Z,4.44
2023-02-01T01:26:48.564Z,4.44
2023-02-01T01:26:58.574Z,4.46
2023-02-01T01:27:08.629Z,4.44
2023-02-01T01:27:18.663Z,4.44
2023-02-01T01:27:28.709Z,4.46
2023-02-01T01:27:38.763Z,4.43
2023-02-01T01:27:48.812Z,4.44
2023-02-01T01:27:58.848Z,4.44
2023-02-01T01:28:08.931Z,4.44
2023-02-01T01:28:18.960Z,4.46
2023-02-01T01:28:28.992Z,4.44
2023-02-01T01:28:39.043Z,4.43
2023-02-01T01:28:49.093Z,4.44
2023-02-01T01:28:59.153Z,4.44
2023-02-01T01:29:09.214Z,4.44
2023-02-01T01:29:19.252Z,4.44
2023-02-01T01:29:29.303Z,4.43
2023-02-01T01:29:39.342Z,4.44
2023-02-01T01:29:49.382Z,4.44
2023-02-01T01:29:59.442Z,4.44
2023-02-01T01:30:09.470Z,4.43
2023-02-01T01:30:20.183Z,4.43
2023-02-01T01:30:29.788Z,4.43
2023-02-01T01:30:39.854Z,4.43
2023-02-01T01:30:49.894Z,4.43
2023-02-01T01:31:00.132Z,4.43
2023-02-01T01:31:10.167Z,4.44
2023-02-01T01:31:20.298Z,4.44
2023-02-01T01:31:30.463Z,4.42
2023-02-01T01:31:40.575Z,4.44
2023-02-01T01:31:50.661Z,4.44
2023-02-01T01:32:00.715Z,4.43
